createdAt,value
2019-01-21T00:02:25.448Z,93.40
2019-01-21T00:04:53.404Z,93.60
2019-01-21T00:07:21.353Z,93.70
2019-01-21T00:09:49.234Z,93.60
2019-01-21T00:12:17.180Z,93.60
2019-01-21T00:14:45.080Z,93.60
2019-01-21T00:17:13.040Z,93.50
2019-01-21T00:19:41.026Z,93.40
2019-01-21T00:22:08.878Z,93.30
2019-01-21T00:24:36.817Z,93.20
2019-01-21T00:27:04.698Z,93.30
2019-01-21T00:29:32.582Z,93.30
2019-01-21T00:32:00.452Z,93.30
2019-01-21T00:34:28.341Z,93.20
2019-01-21T00:37:03.303Z,93.20
2019-01-21T00:39:25.807Z,93.30
2019-01-21T00:41:53.681Z,92.80
2019-01-21T00:44:21.934Z,92.70
2019-01-21T00:46:49.810Z,92.80
2019-01-21T00:49:17.693Z,92.90
2019-01-21T00:51:45.565Z,92.80
2019-01-21T00:54:13.426Z,93.00
2019-01-21T00:56:41.385Z,93.10
2019-01-21T00:59:09.259Z,93.10
2019-01-21T01:01:37.315Z,93.20
2019-01-21T01:04:05.709Z,93.10
2019-01-21T01:06:33.605Z,93.10
2019-01-21T01:09:01.469Z,93.10
2019-01-21T01:11:29.611Z,93.20
2019-01-21T01:13:57.468Z,93.30
2019-01-21T01:16:25.345Z,93.30
2019-01-21T01:18:53.316Z,93.40
2019-01-21T01:21:21.265Z,93.50
2019-01-21T01:23:49.145Z,93.50
2019-01-21T01:26:17.031Z,93.60
2019-01-21T01:28:44.969Z,93.70
2019-01-21T01:31:12.924Z,93.70
2019-01-21T01:33:40.800Z,93.80
2019-01-21T01:36:09.113Z,93.80
2019-01-21T01:38:37.073Z,93.70
2019-01-21T01:41:05.029Z,93.60
2019-01-21T01:43:32.972Z,93.60
2019-01-21T01:46:00.938Z,93.60
2019-01-21T01:48:28.827Z,93.60
2019-01-21T01:50:56.790Z,93.50
2019-01-21T01:53:24.720Z,93.30
2019-01-21T01:55:53.115Z,93.20
2019-01-21T01:58:21.005Z,93.20
2019-01-21T02:00:48.960Z,93.30
2019-01-21T02:03:16.980Z,93.70
2019-01-21T02:05:44.895Z,93.30
2019-01-21T02:08:13.038Z,93.30
2019-01-21T02:10:40.929Z,93.60
2019-01-21T02:13:08.872Z,93.30
2019-01-21T02:15:36.775Z,93.40
2019-01-21T02:18:05.143Z,93.40
2019-01-21T02:20:33.131Z,93.20
2019-01-21T02:23:04.692Z,93.20
2019-01-21T02:25:51.810Z,93.00
2019-01-21T02:28:22.695Z,92.60
2019-01-21T02:31:08.890Z,92.70
2019-01-21T02:33:51.547Z,92.60
2019-01-21T02:36:37.408Z,92.50
2019-01-21T02:39:21.992Z,92.60
2019-01-21T02:41:52.634Z,92.60
2019-01-21T02:44:38.704Z,92.70
2019-01-21T02:47:11.727Z,92.80
2019-01-21T02:49:57.812Z,93.00
2019-01-21T02:52:45.451Z,93.10
2019-01-21T02:55:18.458Z,93.30
2019-01-21T02:58:09.048Z,93.40
2019-01-21T03:00:56.775Z,93.50
2019-01-21T03:03:34.191Z,93.60
2019-01-21T03:06:21.474Z,93.20
2019-01-21T03:09:14.957Z,93.00
2019-01-21T03:11:50.480Z,92.90
2019-01-21T03:14:22.680Z,92.80
2019-01-21T03:17:12.589Z,92.40
2019-01-21T03:19:52.787Z,92.20
2019-01-21T03:22:46.248Z,92.20
2019-01-21T03:25:43.306Z,92.10
2019-01-21T03:28:19.071Z,91.90
2019-01-21T03:31:04.745Z,91.90
2019-01-21T03:33:44.982Z,92.00
2019-01-21T03:36:18.853Z,92.20
2019-01-21T03:39:05.969Z,92.30
2019-01-21T03:41:56.517Z,92.30
2019-01-21T03:44:42.382Z,92.30
2019-01-21T03:47:22.077Z,92.30
2019-01-21T03:50:03.254Z,92.30
2019-01-21T03:52:39.178Z,92.50
2019-01-21T03:55:14.858Z,92.60
2019-01-21T03:57:47.545Z,92.60
2019-01-21T04:00:17.994Z,92.50
2019-01-21T04:02:56.393Z,92.30
2019-01-21T04:05:46.638Z,92.40
2019-01-21T04:08:21.219Z,92.50
2019-01-21T04:11:06.967Z,92.60
2019-01-21T04:13:54.128Z,92.60
2019-01-21T04:16:38.550Z,92.60
2019-01-21T04:19:25.714Z,92.60
2019-01-21T04:21:59.969Z,92.60
2019-01-21T04:24:50.099Z,92.60
2019-01-21T04:27:37.216Z,92.60
2019-01-21T04:30:27.135Z,92.60
2019-01-21T04:33:02.753Z,92.60
2019-01-21T04:35:38.740Z,92.60
2019-01-21T04:38:29.165Z,92.60
2019-01-21T04:41:15.333Z,92.60
2019-01-21T04:44:08.631Z,92.60
2019-01-21T04:46:54.456Z,92.30
2019-01-21T04:49:36.502Z,92.10
2019-01-21T04:52:12.687Z,92.00
2019-01-21T04:55:11.750Z,91.90
2019-01-21T04:57:58.192Z,91.80
2019-01-21T05:00:44.377Z,91.60
2019-01-21T05:03:26.917Z,91.70
2019-01-21T05:06:20.185Z,91.80
2019-01-21T05:09:07.286Z,92.00
2019-01-21T05:11:54.702Z,91.90
2019-01-21T05:14:34.401Z,91.80
2019-01-21T05:17:20.544Z,91.90
2019-01-21T05:20:06.820Z,92.10
2019-01-21T05:22:52.856Z,92.00
2019-01-21T05:25:49.369Z,91.90
2019-01-21T05:28:25.204Z,91.80
2019-01-21T05:31:18.217Z,92.00
2019-01-21T05:34:12.618Z,92.00
2019-01-21T05:37:03.210Z,91.70
2019-01-21T05:39:48.957Z,91.40
2019-01-21T05:42:29.701Z,91.30
2019-01-21T05:45:16.926Z,91.50
2019-01-21T05:48:09.175Z,91.40
2019-01-21T05:51:04.683Z,91.30
2019-01-21T05:53:58.218Z,91.20
2019-01-21T05:56:32.056Z,91.50
2019-01-21T05:59:22.007Z,91.30
2019-01-21T06:02:03.030Z,91.30
2019-01-21T06:04:59.395Z,91.10
2019-01-21T06:07:45.956Z,91.30
2019-01-21T06:10:16.473Z,91.20
2019-01-21T06:12:50.984Z,91.30
2019-01-21T06:15:29.387Z,91.50
2019-01-21T06:18:06.161Z,91.30
2019-01-21T06:20:47.176Z,91.20
2019-01-21T06:23:43.385Z,91.40
2019-01-21T06:26:29.602Z,91.60
2019-01-21T06:29:23.140Z,91.90
2019-01-21T06:32:19.589Z,91.90
2019-01-21T06:34:54.982Z,91.80
2019-01-21T06:37:27.662Z,91.90
2019-01-21T06:40:20.928Z,92.00
2019-01-21T06:42:57.216Z,92.10
2019-01-21T06:45:53.792Z,92.00
2019-01-21T06:48:39.841Z,92.10
2019-01-21T06:51:36.279Z,92.20
2019-01-21T06:54:23.397Z,92.10
2019-01-21T06:57:13.824Z,92.10
2019-01-21T07:00:00.929Z,92.00
2019-01-21T07:02:53.908Z,92.00
2019-01-21T07:05:44.022Z,92.10
2019-01-21T07:08:30.030Z,92.20
2019-01-21T07:11:30.928Z,92.10
2019-01-21T07:14:27.404Z,92.00
2019-01-21T07:16:58.688Z,91.80
2019-01-21T07:19:48.792Z,92.00
2019-01-21T07:22:24.289Z,92.10
2019-01-21T07:25:00.215Z,92.30
2019-01-21T07:27:47.459Z,92.50
2019-01-21T07:30:33.163Z,92.20
2019-01-21T07:33:06.621Z,92.20
2019-01-21T07:35:53.741Z,92.10
2019-01-21T07:38:26.475Z,91.90
2019-01-21T07:41:16.353Z,91.90
2019-01-21T07:43:53.007Z,91.90
2019-01-21T07:46:39.931Z,92.10
2019-01-21T07:49:26.009Z,92.10
2019-01-21T07:52:13.452Z,92.10
2019-01-21T07:54:56.413Z,92.10
2019-01-21T07:57:40.527Z,92.00
2019-01-21T08:00:14.728Z,91.90
2019-01-21T08:03:00.626Z,91.90
2019-01-21T08:05:59.963Z,91.40
2019-01-21T08:08:41.371Z,91.40
2019-01-21T08:11:14.359Z,91.50
2019-01-21T08:14:01.098Z,91.30
2019-01-21T08:16:48.314Z,91.20
2019-01-21T08:19:35.442Z,91.20
2019-01-21T08:22:25.561Z,90.60
2019-01-21T08:25:04.931Z,90.60
2019-01-21T08:27:35.388Z,89.90
2019-01-21T08:30:08.985Z,89.90
2019-01-21T08:32:51.592Z,89.70
2019-01-21T08:35:48.005Z,89.90
2019-01-21T08:38:36.225Z,90.00
2019-01-21T08:41:22.390Z,89.20
2019-01-21T08:43:58.112Z,88.40
2019-01-21T08:46:51.261Z,88.20
2019-01-21T08:49:37.063Z,88.10
2019-01-21T08:52:14.124Z,88.30
2019-01-21T08:54:47.100Z,88.40
2019-01-21T08:57:23.757Z,88.10
2019-01-21T08:59:57.493Z,87.60
2019-01-21T09:02:47.641Z,87.70
2019-01-21T09:05:35.010Z,87.50
2019-01-21T09:08:28.134Z,87.30
2019-01-21T09:11:07.986Z,86.90
2019-01-21T09:13:58.517Z,86.70
2019-01-21T09:16:43.081Z,85.60
2019-01-21T09:19:37.397Z,85.60
2019-01-21T09:22:18.241Z,85.70
2019-01-21T09:24:50.968Z,86.10
2019-01-21T09:27:44.215Z,86.70
2019-01-21T09:30:31.301Z,87.50
2019-01-21T09:33:05.436Z,87.90
2019-01-21T09:35:40.006Z,87.30
2019-01-21T09:38:29.481Z,87.50
2019-01-21T09:41:16.579Z,88.00
2019-01-21T09:44:16.191Z,88.40
2019-01-21T09:46:50.205Z,89.00
2019-01-21T09:49:17.406Z,88.40
2019-01-21T09:52:22.752Z,85.90
2019-01-21T09:54:51.705Z,84.00
2019-01-21T09:57:20.544Z,82.70
2019-01-21T09:59:52.400Z,82.30
2019-01-21T10:02:23.649Z,81.60
2019-01-21T10:04:57.860Z,81.10
2019-01-21T10:07:39.036Z,79.00
2019-01-21T10:10:25.007Z,76.30
2019-01-21T10:13:11.690Z,75.80
2019-01-21T10:15:46.504Z,74.60
2019-01-21T10:18:17.915Z,73.10
2019-01-21T10:21:07.922Z,73.00
2019-01-21T10:23:43.537Z,73.30
2019-01-21T10:26:26.600Z,73.80
2019-01-21T10:28:59.945Z,73.20
2019-01-21T10:31:42.428Z,72.90
2019-01-21T10:34:28.346Z,71.60
2019-01-21T10:37:18.149Z,69.90
2019-01-21T10:40:07.847Z,69.40
2019-01-21T10:42:53.309Z,69.50
2019-01-21T10:45:42.698Z,69.20
2019-01-21T10:48:14.089Z,67.90
2019-01-21T10:50:47.405Z,67.80
2019-01-21T10:53:21.378Z,67.90
2019-01-21T10:56:07.093Z,67.20
2019-01-21T10:58:53.229Z,67.30
2019-01-21T11:01:43.786Z,66.50
2019-01-21T11:04:38.647Z,66.60
2019-01-21T11:07:31.901Z,66.50
2019-01-21T11:10:02.992Z,66.50
2019-01-21T11:12:59.437Z,67.00
2019-01-21T11:15:39.403Z,67.30
2019-01-21T11:18:33.356Z,67.90
2019-01-21T11:21:08.593Z,66.40
2019-01-21T11:23:58.580Z,66.00
2019-01-21T11:26:33.043Z,65.50
2019-01-21T11:29:14.308Z,65.70
2019-01-21T11:31:46.057Z,66.40
2019-01-21T11:34:36.392Z,67.50
2019-01-21T11:37:32.637Z,67.20
2019-01-21T11:40:19.037Z,67.50
2019-01-21T11:43:06.429Z,67.60
2019-01-21T11:45:39.227Z,68.70
2019-01-21T11:48:26.357Z,68.30
2019-01-21T11:51:07.891Z,68.10
2019-01-21T11:53:43.145Z,68.10
2019-01-21T11:56:21.145Z,67.80
2019-01-21T11:59:06.854Z,68.00
2019-01-21T12:02:06.026Z,68.50
2019-01-21T12:04:53.147Z,68.20
2019-01-21T12:07:25.444Z,69.90
2019-01-21T12:10:01.682Z,69.80
2019-01-21T12:12:35.206Z,69.70
2019-01-21T12:15:25.198Z,68.60
2019-01-21T12:18:02.637Z,68.90
2019-01-21T12:20:44.688Z,69.30
2019-01-21T12:23:27.070Z,70.20
2019-01-21T12:26:29.592Z,70.20
2019-01-21T12:29:16.748Z,69.80
2019-01-21T12:32:00.530Z,70.00
2019-01-21T12:34:40.830Z,70.00
2019-01-21T12:37:12.933Z,69.50
2019-01-21T12:40:02.995Z,68.30
2019-01-21T12:42:56.719Z,69.20
2019-01-21T12:45:44.057Z,69.20
2019-01-21T12:48:31.521Z,69.30
2019-01-21T12:51:24.762Z,70.60
2019-01-21T12:54:08.362Z,70.50
2019-01-21T12:57:14.640Z,70.40
2019-01-21T12:59:50.978Z,70.40
2019-01-21T13:02:24.376Z,70.70
2019-01-21T13:05:01.594Z,70.90
2019-01-21T13:07:47.671Z,70.90
2019-01-21T13:10:22.143Z,71.60
2019-01-21T13:13:15.353Z,71.50
2019-01-21T13:16:08.732Z,72.50
2019-01-21T13:18:53.356Z,73.10
2019-01-21T13:21:58.924Z,73.00
2019-01-21T13:24:44.507Z,73.70
2019-01-21T13:27:23.010Z,73.90
2019-01-21T13:30:13.960Z,74.30
2019-01-21T13:33:02.285Z,73.70
2019-01-21T13:35:48.050Z,73.90
2019-01-21T13:38:35.268Z,74.50
2019-01-21T13:41:34.440Z,75.20
2019-01-21T13:44:16.320Z,75.10
2019-01-21T13:47:07.948Z,75.60
2019-01-21T13:49:48.120Z,75.40
2019-01-21T13:52:34.194Z,75.10
2019-01-21T13:55:13.755Z,74.70
2019-01-21T13:58:07.692Z,74.80
2019-01-21T14:00:41.643Z,74.60
2019-01-21T14:03:38.083Z,74.90
2019-01-21T14:06:37.168Z,75.90
2019-01-21T14:09:24.700Z,76.50
2019-01-21T14:11:58.052Z,77.10
2019-01-21T14:14:42.565Z,77.20
2019-01-21T14:17:33.144Z,77.60
2019-01-21T14:20:06.274Z,77.70
2019-01-21T14:22:59.780Z,77.60
2019-01-21T14:25:38.058Z,78.00
2019-01-21T14:28:34.361Z,78.40
2019-01-21T14:31:07.960Z,79.10
2019-01-21T14:33:42.768Z,79.60
2019-01-21T14:36:16.681Z,79.90
2019-01-21T14:39:22.127Z,80.30
2019-01-21T14:42:11.936Z,80.70
2019-01-21T14:44:57.455Z,81.20
2019-01-21T14:47:29.996Z,81.40
2019-01-21T14:50:05.753Z,81.30
2019-01-21T14:52:44.068Z,81.70
2019-01-21T14:55:34.022Z,82.00
2019-01-21T14:58:09.361Z,82.60
2019-01-21T15:00:58.469Z,83.30
2019-01-21T15:03:45.655Z,83.60
2019-01-21T15:06:33.665Z,84.30
2019-01-21T15:09:30.547Z,84.90
2019-01-21T15:12:16.383Z,85.50
2019-01-21T15:15:06.723Z,86.10
2019-01-21T15:17:45.072Z,87.10
2019-01-21T15:20:25.335Z,87.60
2019-01-21T15:22:59.925Z,88.60
2019-01-21T15:25:40.709Z,88.10
2019-01-21T15:28:30.752Z,88.30
2019-01-21T15:31:33.395Z,88.80
2019-01-21T15:34:23.372Z,90.00
2019-01-21T15:37:15.655Z,90.10
2019-01-21T15:40:03.824Z,90.10
2019-01-21T15:42:50.989Z,90.10
2019-01-21T15:45:41.317Z,90.30
2019-01-21T15:48:15.065Z,90.90
2019-01-21T15:51:05.217Z,91.60
2019-01-21T15:53:54.084Z,91.90
2019-01-21T15:56:41.226Z,92.00
2019-01-21T15:59:13.409Z,92.20
2019-01-21T16:01:52.668Z,92.50
2019-01-21T16:04:24.924Z,92.70
2019-01-21T16:07:00.574Z,93.00
2019-01-21T16:09:47.848Z,93.30
2019-01-21T16:12:24.561Z,93.60
2019-01-21T16:14:57.685Z,93.90
2019-01-21T16:17:34.256Z,94.20
2019-01-21T16:20:06.175Z,94.60
2019-01-21T16:22:53.353Z,94.70
2019-01-21T16:25:35.742Z,94.70
2019-01-21T16:28:23.125Z,94.80
2019-01-21T16:31:12.138Z,94.60
2019-01-21T16:33:59.060Z,94.60
2019-01-21T16:36:31.221Z,94.50
2019-01-21T16:39:09.124Z,94.70
2019-01-21T16:42:11.276Z,94.80
2019-01-21T16:44:39.494Z,94.70
2019-01-21T16:47:07.837Z,94.30
2019-01-21T16:49:35.861Z,94.00
2019-01-21T16:52:03.885Z,94.00
2019-01-21T16:54:31.805Z,94.00
2019-01-21T16:56:59.784Z,94.10
2019-01-21T16:59:29.423Z,94.30
2019-01-21T17:01:57.515Z,94.20
2019-01-21T17:04:25.460Z,94.40
2019-01-21T17:06:56.674Z,94.80
2019-01-21T17:09:26.374Z,94.90
2019-01-21T17:11:55.594Z,94.70
2019-01-21T17:14:23.848Z,94.60
2019-01-21T17:16:52.132Z,94.30
2019-01-21T17:19:20.042Z,94.30
2019-01-21T17:21:48.454Z,94.30
2019-01-21T17:24:17.757Z,94.00
2019-01-21T17:26:45.757Z,93.90
2019-01-21T17:29:13.897Z,94.00
2019-01-21T17:31:41.837Z,93.80
2019-01-21T17:34:10.747Z,94.00
2019-01-21T17:36:38.736Z,93.50
2019-01-21T17:39:08.125Z,93.40
2019-01-21T17:41:36.066Z,93.20
2019-01-21T17:44:04.521Z,93.20
2019-01-21T17:46:32.503Z,93.20
2019-01-21T17:49:01.491Z,93.40
2019-01-21T17:51:33.791Z,93.40
2019-01-21T17:53:59.526Z,93.40
2019-01-21T17:56:27.408Z,93.50
2019-01-21T17:58:55.442Z,93.60
2019-01-21T18:01:23.709Z,93.90
2019-01-21T18:03:51.781Z,93.90
2019-01-21T18:06:19.739Z,94.10
2019-01-21T18:08:47.768Z,94.10
2019-01-21T18:11:16.171Z,93.90
2019-01-21T18:13:44.134Z,93.50
2019-01-21T18:16:12.669Z,93.40
2019-01-21T18:18:41.480Z,93.30
2019-01-21T18:21:10.084Z,93.40
2019-01-21T18:23:38.164Z,93.40
2019-01-21T18:26:06.314Z,93.30
2019-01-21T18:28:34.369Z,93.00
2019-01-21T18:31:02.360Z,93.00
2019-01-21T18:33:30.571Z,93.00
2019-01-21T18:35:59.672Z,93.00
2019-01-21T18:38:27.635Z,93.00
2019-01-21T18:40:55.597Z,93.00
2019-01-21T18:43:23.896Z,93.40
2019-01-21T18:45:51.941Z,93.10
2019-01-21T18:48:20.244Z,93.20
2019-01-21T18:50:48.253Z,93.40
2019-01-21T18:53:16.208Z,93.60
2019-01-21T18:55:45.729Z,93.80
2019-01-21T18:58:14.066Z,93.90
2019-01-21T19:00:41.997Z,94.10
2019-01-21T19:03:10.685Z,94.10
2019-01-21T19:05:38.689Z,94.00
2019-01-21T19:08:33.141Z,94.10
2019-01-21T19:11:03.266Z,94.40
2019-01-21T19:13:31.321Z,94.50
2019-01-21T19:15:59.392Z,94.50
2019-01-21T19:18:27.582Z,94.50
2019-01-21T19:20:57.172Z,94.40
2019-01-21T19:23:25.276Z,93.90
2019-01-21T19:25:53.461Z,93.70
2019-01-21T19:28:21.736Z,93.60
2019-01-21T19:30:49.789Z,93.50
2019-01-21T19:33:17.789Z,93.50
2019-01-21T19:35:45.707Z,93.60
2019-01-21T19:38:13.751Z,93.70
2019-01-21T19:40:41.665Z,93.80
2019-01-21T19:43:09.603Z,93.90
2019-01-21T19:45:37.643Z,93.90
2019-01-21T19:48:05.787Z,94.10
2019-01-21T19:50:33.869Z,94.20
2019-01-21T19:53:02.241Z,94.00
2019-01-21T19:55:37.504Z,93.70
2019-01-21T19:58:07.204Z,93.50
2019-01-21T20:00:35.213Z,93.50
2019-01-21T20:03:03.268Z,93.40
2019-01-21T20:05:31.379Z,93.40
2019-01-21T20:08:00.396Z,93.40
2019-01-21T20:10:28.388Z,93.40
2019-01-21T20:12:56.911Z,93.30
2019-01-21T20:15:24.962Z,93.20
2019-01-21T20:17:52.929Z,93.10
2019-01-21T20:20:22.432Z,93.10
2019-01-21T20:22:57.215Z,93.10
2019-01-21T20:25:20.529Z,93.10
2019-01-21T20:27:48.856Z,93.20
2019-01-21T20:30:17.840Z,93.20
2019-01-21T20:32:46.091Z,93.30
2019-01-21T20:35:14.489Z,93.30
2019-01-21T20:37:42.504Z,93.30
2019-01-21T20:40:12.346Z,92.80
2019-01-21T20:42:40.470Z,92.60
2019-01-21T20:45:08.879Z,92.60
2019-01-21T20:47:37.207Z,92.70
2019-01-21T20:50:06.232Z,92.80
2019-01-21T20:52:34.391Z,92.80
2019-01-21T20:55:02.403Z,93.10
2019-01-21T20:57:30.885Z,93.30
2019-01-21T20:59:58.980Z,93.40
2019-01-21T21:02:27.625Z,93.60
2019-01-21T21:04:55.511Z,93.80
2019-01-21T21:07:23.610Z,94.00
2019-01-21T21:09:52.483Z,94.20
2019-01-21T21:12:25.777Z,94.20
2019-01-21T21:14:50.057Z,94.20
2019-01-21T21:17:18.044Z,94.10
2019-01-21T21:19:45.957Z,94.10
2019-01-21T21:22:20.871Z,94.20
2019-01-21T21:24:43.785Z,94.30
2019-01-21T21:27:11.703Z,94.40
2019-01-21T21:29:40.108Z,94.40
2019-01-21T21:32:08.296Z,94.40
2019-01-21T21:34:37.304Z,94.30
2019-01-21T21:37:05.374Z,94.30
2019-01-21T21:39:33.506Z,94.20
2019-01-21T21:42:01.485Z,94.20
2019-01-21T21:44:29.558Z,94.30
2019-01-21T21:46:57.517Z,94.20
2019-01-21T21:49:25.399Z,94.10
2019-01-21T21:51:53.316Z,94.00
2019-01-21T21:54:21.182Z,94.00
2019-01-21T21:56:49.096Z,93.80
2019-01-21T21:59:17.064Z,93.70
2019-01-21T22:01:45.332Z,93.60
2019-01-21T22:04:13.303Z,93.40
2019-01-21T22:06:41.313Z,93.20
2019-01-21T22:09:09.341Z,93.00
2019-01-21T22:11:37.581Z,92.80
2019-01-21T22:14:05.653Z,92.80
2019-01-21T22:16:33.557Z,92.70
2019-01-21T22:19:01.532Z,92.70
2019-01-21T22:21:29.436Z,92.80
2019-01-21T22:23:57.593Z,92.80
2019-01-21T22:26:25.932Z,92.80
2019-01-21T22:28:53.817Z,92.80
2019-01-21T22:31:21.720Z,92.80
2019-01-21T22:33:49.650Z,92.80
2019-01-21T22:36:17.925Z,92.90
2019-01-21T22:38:52.917Z,92.80
2019-01-21T22:41:20.823Z,92.80
2019-01-21T22:43:48.783Z,92.90
2019-01-21T22:46:16.803Z,92.80
2019-01-21T22:48:44.781Z,92.80
2019-01-21T22:51:12.705Z,92.70
2019-01-21T22:53:40.925Z,92.70
2019-01-21T22:56:08.811Z,92.90
2019-01-21T22:58:36.711Z,92.90
2019-01-21T23:01:12.277Z,92.80
2019-01-21T23:03:40.265Z,92.90
2019-01-21T23:06:08.305Z,92.90
2019-01-21T23:08:36.486Z,93.00
2019-01-21T23:11:04.517Z,93.10
2019-01-21T23:13:32.497Z,93.30
2019-01-21T23:16:00.385Z,93.40
2019-01-21T23:18:28.332Z,93.30
2019-01-21T23:20:56.217Z,93.20
2019-01-21T23:23:24.146Z,93.20
2019-01-21T23:25:52.016Z,93.10
2019-01-21T23:28:20.101Z,92.90
2019-01-21T23:30:47.992Z,93.00
2019-01-21T23:33:15.985Z,93.30
2019-01-21T23:35:43.941Z,93.50
2019-01-21T23:38:11.841Z,93.70
2019-01-21T23:40:39.804Z,93.70
2019-01-21T23:43:07.775Z,93.50
2019-01-21T23:45:35.661Z,93.30
2019-01-21T23:48:04.181Z,93.50
2019-01-21T23:50:32.152Z,93.70
2019-01-21T23:53:00.078Z,93.70
2019-01-21T23:55:27.948Z,94.00
2019-01-21T23:57:55.923Z,94.30
